ADDS METAR Data INFO
IDs: Format: Raw Decoded Include TAF

Data at: 0022 UTC 11 Dec 2017

KPSN 110015Z AUTO 18003KT 10SM CLR 12/M01 A3033 RMK AO2 T01211016
KPSN 102355Z AUTO 18003KT 10SM CLR 13/M02 A3033 RMK AO2 T01311021
KPSN 102335Z AUTO 19003KT 10SM CLR 14/M02 A3033 RMK AO2 T01441027
KPSN 102315Z AUTO 21004KT 10SM CLR 16/M02 A3033 RMK AO2 T01591028
KPSN 102255Z AUTO 21004KT 10SM CLR 16/M02 A3034 RMK AO2 T01641026
KPSN 102235Z AUTO 22004KT 10SM CLR 16/M03 A3034 RMK AO2 T01681031
KPSN 102215Z AUTO 22008KT 10SM CLR 18/M03 A3034 RMK AO2 T01851037
KPSN 102155Z AUTO 25007KT 10SM CLR 18/M03 A3034 RMK AO2 T01881039
KPSN 102135Z AUTO 22007KT 10SM CLR 18/M03 A3034 RMK AO2 T01911036
KPSN 102115Z AUTO 23006KT 10SM CLR 18/M03 A3034 RMK AO2 T01881040
KPSN 102055Z AUTO 22008KT 10SM CLR 18/M03 A3034 RMK AO2 T01901034
KPSN 102035Z AUTO 22006KT 10SM CLR 18/M03 A3034 RMK AO2 T01861035
KPSN 102015Z AUTO 24005G08KT 10SM CLR 18/M03 A3035 RMK AO2 T01821039
KPSN 101955Z AUTO 23005KT 10SM CLR 18/M03 A3036 RMK AO2 T01821037
KPSN 101935Z AUTO 26006KT 10SM CLR 17/M03 A3037 RMK AO2 T01781034
KPSN 101915Z AUTO 23007KT 10SM CLR 17/M02 A3038 RMK AO2 T01761023
KPSN 101855Z AUTO 24004KT 10SM CLR 17/M01 A3039 RMK AO2 T01751014
KPSN 101835Z AUTO 24006KT 210V270 10SM CLR 16/M01 A3040 RMK AO2 T01641016
KPSN 101815Z AUTO 23006KT 10SM CLR 16/M02 A3042 RMK AO2 T01591029
KPSN 101755Z AUTO 24006KT 10SM CLR 15/M02 A3042 RMK AO2 T01551027
KPSN 101735Z AUTO 23004KT 10SM CLR 14/M02 A3043 RMK AO2 T01461022
KPSN 101715Z AUTO 00000KT 10SM CLR 13/M02 A3043 RMK AO2 T01371024
KPSN 101655Z AUTO 22004KT 10SM CLR 12/M01 A3044 RMK AO2 T01271013
KPSN 101635Z AUTO 23003KT 10SM CLR 11/00 A3044 RMK AO2 T01161006
KPSN 101615Z AUTO 28003KT 10SM CLR 10/00 A3045 RMK AO2 T01051006
KPSN 101555Z AUTO 00000KT 10SM CLR 09/00 A3046 RMK AO2 T00921007
KPSN 101535Z AUTO 00000KT 10SM CLR 07/00 A3046 RMK AO2 T00771006
KPSN 101515Z AUTO 00000KT 10SM CLR 06/01 A3045 RMK AO2 T00660009
KPSN 101455Z AUTO 00000KT 10SM CLR 05/00 A3044 RMK AO2 T00510007
KPSN 101435Z AUTO 00000KT 10SM CLR 02/00 A3043 RMK AO2 T00220002
KPSN 101415Z AUTO 00000KT 10SM CLR 00/00 A3043 RMK AO2 T00011003
KPSN 101355Z AUTO 00000KT 10SM CLR M01/M02 A3043 RMK AO2 T10151020
KPSN 101335Z AUTO 00000KT 10SM CLR M01/M02 A3042 RMK AO2 T10181024
KPSN 101315Z AUTO 00000KT 10SM CLR M02/M03 A3041 RMK AO2 T10221031
KPSN 101255Z AUTO 00000KT 10SM CLR M01/M01 A3040 RMK AO2 T10091016
KPSN 101235Z AUTO 00000KT 10SM CLR M01/M02 A3040 RMK AO2 T10171021
KPSN 101215Z AUTO 00000KT 10SM CLR M01/M02 A3040 RMK AO2 T10161021
KPSN 101155Z AUTO 00000KT 10SM CLR M01/M02 A3039 RMK AO2 T10151021
KPSN 101135Z AUTO 00000KT 10SM CLR M01/M01 A3038 RMK AO2 T10121018
KPSN 101115Z AUTO 00000KT 10SM CLR M01/M02 A3038 RMK AO2 T10141021
KPSN 101055Z AUTO 00000KT 10SM CLR 00/M02 A3038 RMK AO2 T10051022
KPSN 101035Z AUTO 00000KT 10SM CLR 00/M01 A3038 RMK AO2 T10021017
KPSN 101015Z AUTO 00000KT 10SM CLR 00/M01 A3038 RMK AO2 T10051015
KPSN 100955Z AUTO 00000KT 10SM CLR M01/M02 A3038 RMK AO2 T10081020
KPSN 100935Z AUTO 00000KT 10SM CLR M01/M01 A3038 RMK AO2 T10081016
KPSN 100915Z AUTO 00000KT 10SM CLR M01/M01 A3039 RMK AO2 T10081016
KPSN 100855Z AUTO 00000KT 10SM CLR M01/M01 A3038 RMK AO2 T10081017
KPSN 100835Z AUTO 00000KT 10SM CLR M01/M02 A3038 RMK AO2 T10081019
KPSN 100815Z AUTO 00000KT 10SM CLR 00/M01 A3038 RMK AO2 T10021015
KPSN 100755Z AUTO 00000KT 10SM CLR 00/M01 A3038 RMK AO2 T10011018
KPSN 100735Z AUTO 00000KT 10SM CLR 00/M01 A3038 RMK AO2 T10031017
KPSN 100715Z AUTO 00000KT 10SM CLR 00/M01 A3038 RMK AO2 T00071013
KPSN 100655Z AUTO 00000KT 10SM CLR 00/M01 A3038 RMK AO2 T00001014
KPSN 100635Z AUTO 00000KT 10SM CLR 00/M01 A3038 RMK AO2 T00041014
KPSN 100615Z AUTO 00000KT 10SM CLR 00/M01 A3038 RMK AO2 T00001011
KPSN 100555Z AUTO 00000KT 10SM CLR 00/M01 A3038 RMK AO2 T00031011
KPSN 100535Z AUTO 00000KT 10SM CLR 00/00 A3038 RMK AO2 T00071006
KPSN 100515Z AUTO 00000KT 10SM CLR 01/M01 A3038 RMK AO2 T00121008
KPSN 100455Z AUTO 00000KT 10SM CLR 01/M01 A3037 RMK AO2 T00181011
KPSN 100435Z AUTO 00000KT 10SM CLR 01/00 A3037 RMK AO2 T00191006
KPSN 100415Z AUTO 00000KT 10SM CLR 02/00 A3036 RMK AO2 T00241006
KPSN 100355Z AUTO 00000KT 10SM CLR 02/M01 A3036 RMK AO2 T00261010
KPSN 100335Z AUTO 00000KT 10SM CLR 03/M01 A3035 RMK AO2 T00321010
KPSN 100315Z AUTO 00000KT 10SM CLR 03/00 A3034 RMK AO2 T00311003
KPSN 100255Z AUTO 00000KT 10SM CLR 03/00 A3033 RMK AO2 T00361001
KPSN 100235Z AUTO 00000KT 10SM CLR 03/00 A3033 RMK AO2 T00391005
KPSN 100215Z AUTO 00000KT 10SM CLR 03/00 A3032 RMK AO2 T00381004
KPSN 100155Z AUTO 34003KT 10SM CLR 07/M02 A3031 RMK AO2 T00711019
KPSN 100135Z AUTO 33003KT 10SM CLR 07/M02 A3031 RMK AO2 T00791020
KPSN 100115Z AUTO 33003KT 10SM CLR 08/M02 A3030 RMK AO2 T00851024
KPSN 100055Z AUTO 31004KT 10SM CLR 10/M02 A3029 RMK AO2 T01031030
KPSN 100035Z AUTO 30004KT 10SM CLR 10/M02 A3029 RMK AO2 T01051030
KPSN 100015Z AUTO 30004KT 10SM CLR 11/M03 A3028 RMK AO2 T01131032
KPSN 092355Z AUTO 30003KT 10SM CLR 12/M03 A3028 RMK AO2 T01201034
KPSN 092335Z AUTO 30003KT 10SM CLR 12/M03 A3026 RMK AO2 T01201032
KPSN 092315Z AUTO 31004KT 10SM CLR 12/M03 A3026 RMK AO2 T01301035
KPSN 092255Z AUTO 30007KT 10SM CLR 13/M03 A3025 RMK AO2 T01371034
KPSN 092235Z AUTO 30008KT 10SM CLR 14/M03 A3025 RMK AO2 T01451040
KPSN 092215Z AUTO 31008G16KT 10SM CLR 15/M04 A3024 RMK AO2 T01501042
KPSN 092155Z AUTO 30010KT 10SM CLR 15/M04 A3024 RMK AO2 T01541042
KPSN 092135Z AUTO 28009KT 10SM CLR 15/M03 A3023 RMK AO2 T01551038
KPSN 092115Z AUTO 31010KT 10SM CLR 15/M03 A3023 RMK AO2 T01551037
KPSN 092055Z AUTO 30010KT 10SM CLR 15/M03 A3023 RMK AO2 T01561035
KPSN 092035Z AUTO 30007G14KT 10SM CLR 15/M03 A3023 RMK AO2 T01531037
KPSN 092015Z AUTO 31012G17KT 10SM CLR 15/M03 A3022 RMK AO2 T01541039
KPSN 091955Z AUTO 32013G19KT 10SM CLR 15/M04 A3023 RMK AO2 T01521042
KPSN 091935Z AUTO 31008G15KT 280V350 10SM CLR 15/M03 A3023 RMK AO2 T01491038
KPSN 091915Z AUTO 29011G17KT 10SM CLR 14/M03 A3023 RMK AO2 T01471038
KPSN 091855Z AUTO 32010G18KT 10SM CLR 14/M03 A3024 RMK AO2 T01451034
KPSN 091835Z AUTO 32009G15KT 10SM CLR 13/M02 A3025 RMK AO2 T01401027
KPSN 091815Z AUTO 29008G14KT 10SM CLR 13/M02 A3026 RMK AO2 T01361021
KPSN 091755Z AUTO 28004KT 10SM CLR 12/M01 A3027 RMK AO2 T01201012
KPSN 091735Z AUTO 28005KT 10SM CLR 11/00 A3028 RMK AO2 T01141006
KPSN 091715Z AUTO 29007KT 10SM CLR 10/M01 A3029 RMK AO2 T01021009
KPSN 091655Z AUTO 27007KT 10SM CLR 09/00 A3028 RMK AO2 T00921004
KPSN 091635Z AUTO 00000KT 10SM CLR 07/00 A3028 RMK AO2 T00771002
KPSN 091615Z AUTO 32003KT 10SM CLR 06/00 A3028 RMK AO2 T00611002
KPSN 091555Z AUTO 29004KT 10SM CLR 04/00 A3028 RMK AO2 T00451005
KPSN 091535Z AUTO 29004KT 10SM CLR 03/M01 A3028 RMK AO2 T00311010
KPSN 091515Z AUTO 29003KT 10SM CLR 02/00 A3027 RMK AO2 T00241006
KPSN 091455Z AUTO 00000KT 10SM CLR 01/M01 A3027 RMK AO2 T00151012
KPSN 091435Z AUTO 00000KT 10SM CLR 00/M01 A3026 RMK AO2 T00011017
KPSN 091415Z AUTO 00000KT 10SM CLR M01/M02 A3025 RMK AO2 T10081020
KPSN 091355Z AUTO 00000KT 10SM CLR M02/M03 A3024 RMK AO2 T10241033
KPSN 091335Z AUTO 00000KT 10SM CLR M02/M03 A3023 RMK AO2 T10271039
KPSN 091315Z AUTO 00000KT 10SM CLR M03/M03 A3022 RMK AO2 T10321038
KPSN 091255Z AUTO 00000KT 10SM CLR M03/M03 A3022 RMK AO2 T10311039
KPSN 091235Z AUTO 00000KT 10SM CLR M03/M04 A3021 RMK AO2 T10331042